createdAt,value
2022-08-23T00:01:26.013Z,3.80
2022-08-23T00:03:33.386Z,3.70
2022-08-23T00:05:38.170Z,3.90
2022-08-23T00:07:44.176Z,4.20
2022-08-23T00:09:49.003Z,4.40
2022-08-23T00:12:02.749Z,3.00
2022-08-23T00:14:10.661Z,3.00
2022-08-23T00:16:15.801Z,3.50
2022-08-23T00:18:24.312Z,3.30
2022-08-23T00:20:29.025Z,3.10
2022-08-23T00:22:33.708Z,3.30
2022-08-23T00:24:41.018Z,3.00
2022-08-23T00:26:57.000Z,3.00
2022-08-23T00:29:01.869Z,2.50
2022-08-23T00:31:07.151Z,3.00
2022-08-23T00:33:12.188Z,2.90
2022-08-23T00:35:26.628Z,2.60
2022-08-23T00:37:32.919Z,3.80
2022-08-23T00:39:37.879Z,3.00
2022-08-23T00:41:42.787Z,3.10
2022-08-23T00:43:48.236Z,2.70
2022-08-23T00:46:02.150Z,2.30
2022-08-23T00:48:07.955Z,4.30
2022-08-23T00:50:24.187Z,2.30
2022-08-23T00:52:37.391Z,3.40
2022-08-23T00:54:43.382Z,2.20
2022-08-23T00:56:48.500Z,2.00
2022-08-23T00:58:53.559Z,2.90
2022-08-23T01:01:00.959Z,2.90
2022-08-23T01:03:08.973Z,2.10
2022-08-23T01:05:14.514Z,2.40
2022-08-23T01:07:28.270Z,2.10
2022-08-23T01:09:33.321Z,2.60
2022-08-23T01:11:42.368Z,2.10
2022-08-23T01:13:51.075Z,2.70
2022-08-23T01:15:59.161Z,2.70
2022-08-23T01:18:07.442Z,1.90
2022-08-23T01:20:14.982Z,2.40
2022-08-23T01:22:28.580Z,1.80
2022-08-23T01:24:59.880Z,2.10
2022-08-23T01:26:59.816Z,1.90
2022-08-23T01:29:07.132Z,2.00
2022-08-23T01:31:13.457Z,1.90
2022-08-23T01:33:18.547Z,2.00
2022-08-23T01:35:37.520Z,1.40
2022-08-23T01:37:42.504Z,2.00
2022-08-23T01:39:47.310Z,1.60
2022-08-23T01:41:52.084Z,2.30
2022-08-23T01:43:56.942Z,1.50
2022-08-23T01:46:11.694Z,2.00
2022-08-23T01:48:18.008Z,2.30
2022-08-23T01:50:23.089Z,2.20
2022-08-23T01:52:31.058Z,2.20
2022-08-23T01:54:35.941Z,2.00
2022-08-23T01:56:42.379Z,2.90
2022-08-23T01:58:49.663Z,1.60
2022-08-23T02:00:54.532Z,2.20
2022-08-23T02:02:59.639Z,2.30
2022-08-23T02:05:05.906Z,1.80
2022-08-23T02:07:10.699Z,2.10
2022-08-23T02:09:18.834Z,2.40
2022-08-23T02:11:25.454Z,2.00
2022-08-23T02:13:30.260Z,2.30
2022-08-23T02:15:35.410Z,2.60
2022-08-23T02:17:40.258Z,2.00
2022-08-23T02:19:45.562Z,1.60
2022-08-23T02:21:50.742Z,2.40
2022-08-23T02:23:55.475Z,2.30
2022-08-23T02:26:00.224Z,2.60
2022-08-23T02:28:08.174Z,2.20
2022-08-23T02:30:14.073Z,2.40
2022-08-23T02:32:19.680Z,2.10
2022-08-23T02:34:37.663Z,2.10
2022-08-23T02:36:43.606Z,2.00
2022-08-23T02:38:48.468Z,2.00
2022-08-23T02:41:00.862Z,2.20
2022-08-23T02:43:06.816Z,4.20
2022-08-23T02:45:12.943Z,2.00
2022-08-23T02:47:22.384Z,2.40
2022-08-23T02:49:37.680Z,2.30
2022-08-23T02:51:42.812Z,2.20
2022-08-23T02:53:47.853Z,2.70
2022-08-23T02:55:53.549Z,2.20
2022-08-23T02:57:58.598Z,3.60
2022-08-23T03:00:04.682Z,2.90
2022-08-23T03:02:09.737Z,3.00
2022-08-23T03:04:18.295Z,2.80
2022-08-23T03:06:24.888Z,3.00
2022-08-23T03:08:30.891Z,3.10
2022-08-23T03:10:36.038Z,3.20
2022-08-23T03:12:40.829Z,3.40
2022-08-23T03:14:45.851Z,3.00
2022-08-23T03:16:51.148Z,3.00
2022-08-23T03:18:56.238Z,3.00
2022-08-23T03:21:01.105Z,3.40
2022-08-23T03:23:05.859Z,3.50
2022-08-23T03:25:11.409Z,3.80
2022-08-23T03:27:28.972Z,3.50
2022-08-23T03:29:33.929Z,3.40
2022-08-23T03:31:39.852Z,3.80
2022-08-23T03:33:47.331Z,3.30
2022-08-23T03:35:52.648Z,3.70
2022-08-23T03:37:57.487Z,3.70
2022-08-23T03:40:02.614Z,3.70
2022-08-23T03:42:08.470Z,4.30
2022-08-23T03:44:14.479Z,5.40
2022-08-23T03:46:20.422Z,3.80
2022-08-23T03:48:25.582Z,3.80
2022-08-23T03:50:30.634Z,3.40
2022-08-23T03:52:35.403Z,4.10
2022-08-23T03:54:40.614Z,4.40
2022-08-23T03:56:54.134Z,3.30
2022-08-23T03:59:04.506Z,3.40
2022-08-23T04:01:09.228Z,4.40
2022-08-23T04:03:14.038Z,3.30
2022-08-23T04:05:32.602Z,3.70
2022-08-23T04:07:41.372Z,3.80
2022-08-23T04:09:46.386Z,3.60
2022-08-23T04:11:51.365Z,3.70
2022-08-23T04:13:56.068Z,3.70
2022-08-23T04:16:00.764Z,3.70
2022-08-23T04:18:06.291Z,4.30
2022-08-23T04:20:14.231Z,4.40
2022-08-23T04:22:26.887Z,3.50
2022-08-23T04:24:31.770Z,4.30
2022-08-23T04:26:36.660Z,4.00
2022-08-23T04:28:45.220Z,4.60
2022-08-23T04:30:51.486Z,3.60
2022-08-23T04:32:56.427Z,4.10
2022-08-23T04:35:01.486Z,3.30
2022-08-23T04:37:09.253Z,3.60
2022-08-23T04:39:14.615Z,3.80
2022-08-23T04:41:20.292Z,3.60
2022-08-23T04:43:25.377Z,3.80
2022-08-23T04:45:30.549Z,5.00
2022-08-23T04:47:35.376Z,4.60
2022-08-23T04:49:40.202Z,3.30
2022-08-23T04:51:53.490Z,4.00
2022-08-23T04:53:59.005Z,4.20
2022-08-23T04:56:10.369Z,4.60
2022-08-23T04:58:15.455Z,3.70
2022-08-23T05:00:22.928Z,4.10
2022-08-23T05:02:32.989Z,4.20
2022-08-23T05:04:37.744Z,4.60
2022-08-23T05:06:42.614Z,3.90
2022-08-23T05:08:47.903Z,5.00
2022-08-23T05:10:54.348Z,4.30
2022-08-23T05:12:59.519Z,4.30
2022-08-23T05:15:04.640Z,4.30
2022-08-23T05:17:09.568Z,5.40
2022-08-23T05:19:18.343Z,4.30
2022-08-23T05:21:25.762Z,4.20
2022-08-23T05:23:32.082Z,4.70
2022-08-23T05:25:46.804Z,5.00
2022-08-23T05:27:55.639Z,4.70
2022-08-23T05:30:00.782Z,4.90
2022-08-23T05:32:05.963Z,4.50
2022-08-23T05:34:10.829Z,4.80
2022-08-23T05:36:27.877Z,5.20
2022-08-23T05:38:33.360Z,5.50
2022-08-23T05:40:38.387Z,4.90
2022-08-23T05:42:47.466Z,4.90
2022-08-23T05:44:55.105Z,5.60
2022-08-23T05:47:01.550Z,5.50
2022-08-23T05:49:15.598Z,4.70
2022-08-23T05:51:29.043Z,6.00
2022-08-23T05:53:33.874Z,5.00
2022-08-23T05:55:39.743Z,4.90
2022-08-23T05:57:54.971Z,5.00
2022-08-23T06:00:00.870Z,5.40
2022-08-23T06:02:06.273Z,5.40
2022-08-23T06:04:14.892Z,6.20
2022-08-23T06:06:22.310Z,5.60
2022-08-23T06:08:40.315Z,5.00
2022-08-23T06:10:45.568Z,5.40
2022-08-23T06:13:05.210Z,5.30
2022-08-23T06:15:11.193Z,5.30
2022-08-23T06:17:19.113Z,5.20
2022-08-23T06:19:24.755Z,4.80
2022-08-23T06:21:45.562Z,5.70
2022-08-23T06:23:51.331Z,5.20
2022-08-23T06:25:56.374Z,5.10
2022-08-23T06:28:01.580Z,6.00
2022-08-23T06:30:11.936Z,6.10
2022-08-23T06:32:23.977Z,5.20
2022-08-23T06:34:47.437Z,5.40
2022-08-23T06:37:16.445Z,5.80
2022-08-23T06:39:42.307Z,4.40
2022-08-23T06:42:37.459Z,5.40
2022-08-23T06:44:41.814Z,4.70
2022-08-23T06:47:06.252Z,5.10
2022-08-23T06:49:12.214Z,5.70
2022-08-23T06:51:26.573Z,5.10
2022-08-23T06:53:41.168Z,4.90
2022-08-23T06:55:58.295Z,4.60
2022-08-23T06:58:06.718Z,4.60
2022-08-23T07:00:40.996Z,4.40
2022-08-23T07:03:09.543Z,5.80
2022-08-23T07:05:33.105Z,5.10
2022-08-23T07:07:56.331Z,4.80
2022-08-23T07:10:01.252Z,4.30
2022-08-23T07:12:07.349Z,5.40
2022-08-23T07:14:15.924Z,4.00
2022-08-23T07:16:21.478Z,4.40
2022-08-23T07:18:26.651Z,4.60
2022-08-23T07:20:31.458Z,4.80
2022-08-23T07:22:36.257Z,4.40
2022-08-23T07:24:41.737Z,4.30
2022-08-23T07:26:48.385Z,4.90
2022-08-23T07:28:54.061Z,4.60
2022-08-23T07:31:14.470Z,4.50
2022-08-23T07:33:19.905Z,4.70
2022-08-23T07:35:59.770Z,3.80
2022-08-23T07:38:05.906Z,3.80
2022-08-23T07:40:20.759Z,4.30
2022-08-23T07:42:28.983Z,4.30
2022-08-23T07:44:34.289Z,3.80
2022-08-23T07:46:41.823Z,3.00
2022-08-23T07:48:55.087Z,3.60
2022-08-23T07:51:05.323Z,3.70
2022-08-23T07:53:11.792Z,2.80
2022-08-23T07:55:17.494Z,2.80
2022-08-23T07:57:48.499Z,3.40
2022-08-23T08:00:13.012Z,4.50
2022-08-23T08:02:20.250Z,2.30
2022-08-23T08:04:25.143Z,3.80
2022-08-23T08:06:32.817Z,2.30
2022-08-23T08:08:37.682Z,2.90
2022-08-23T08:10:43.152Z,2.30
2022-08-23T08:12:48.088Z,2.70
2022-08-23T08:14:56.000Z,2.50
2022-08-23T08:17:05.572Z,2.10
2022-08-23T08:19:30.671Z,3.90
2022-08-23T08:22:01.707Z,2.10
2022-08-23T08:24:32.851Z,3.10
2022-08-23T08:26:46.262Z,2.60
2022-08-23T08:28:51.312Z,3.70
2022-08-23T08:30:56.264Z,3.00
2022-08-23T08:33:01.244Z,3.50
2022-08-23T08:35:08.336Z,2.20
2022-08-23T08:37:13.379Z,2.80
2022-08-23T08:39:20.835Z,2.70
2022-08-23T08:41:36.783Z,2.70
2022-08-23T08:44:12.712Z,1.80
2022-08-23T08:46:28.740Z,2.30
2022-08-23T08:48:46.493Z,2.60
2022-08-23T08:50:56.306Z,2.10
2022-08-23T08:53:07.456Z,2.90
2022-08-23T08:55:33.990Z,2.90
2022-08-23T08:57:41.261Z,2.80
2022-08-23T08:59:54.872Z,2.90
2022-08-23T09:02:00.655Z,3.70
2022-08-23T09:04:10.585Z,2.80
2022-08-23T09:06:22.195Z,2.80
2022-08-23T09:08:45.915Z,3.40
2022-08-23T09:11:01.423Z,2.50
2022-08-23T09:13:46.440Z,3.20
2022-08-23T09:16:05.227Z,2.80
2022-08-23T09:18:13.364Z,3.10
2022-08-23T09:20:21.658Z,4.00
2022-08-23T09:22:35.604Z,4.10
2022-08-23T09:24:44.826Z,4.20
2022-08-23T09:27:03.719Z,4.50
2022-08-23T09:29:20.338Z,5.70
2022-08-23T09:31:42.298Z,3.30
2022-08-23T09:33:47.432Z,4.20
2022-08-23T09:36:22.567Z,3.10
2022-08-23T09:38:32.278Z,4.80
2022-08-23T09:40:46.260Z,4.30
2022-08-23T09:43:04.831Z,4.10
2022-08-23T09:45:29.752Z,4.90
2022-08-23T09:47:44.315Z,4.40
2022-08-23T09:49:52.895Z,4.30
2022-08-23T09:52:02.148Z,14.00
2022-08-23T09:54:12.372Z,5.30
2022-08-23T09:56:23.951Z,4.20
2022-08-23T09:58:36.793Z,4.20
2022-08-23T10:00:43.093Z,5.00
2022-08-23T10:02:48.193Z,4.90
2022-08-23T10:05:03.100Z,4.80
2022-08-23T10:07:26.388Z,4.70
2022-08-23T10:09:34.151Z,4.50
2022-08-23T10:11:44.646Z,5.10
2022-08-23T10:13:49.966Z,4.40
2022-08-23T10:16:09.191Z,5.10
2022-08-23T10:18:28.614Z,4.90
2022-08-23T10:20:41.802Z,5.10
2022-08-23T10:22:52.127Z,4.30
2022-08-23T10:25:26.146Z,4.80
2022-08-23T10:27:41.507Z,4.80
2022-08-23T10:29:49.620Z,4.10
2022-08-23T10:32:03.355Z,5.00
2022-08-23T10:34:33.288Z,5.10
2022-08-23T10:36:58.289Z,4.70
2022-08-23T10:39:14.288Z,4.80
2022-08-23T10:41:43.189Z,4.90
2022-08-23T10:44:01.364Z,4.60
2022-08-23T10:46:09.039Z,4.60
2022-08-23T10:48:23.290Z,4.80
2022-08-23T10:50:32.877Z,4.30
2022-08-23T10:52:46.149Z,4.90
2022-08-23T10:54:56.252Z,6.70
2022-08-23T10:57:01.929Z,4.40
2022-08-23T10:59:12.064Z,4.50
2022-08-23T11:01:21.276Z,4.30
2022-08-23T11:03:31.551Z,4.30
2022-08-23T11:05:38.842Z,4.10
2022-08-23T11:08:01.723Z,4.50
2022-08-23T11:10:17.289Z,4.40
2022-08-23T11:12:27.451Z,4.50
2022-08-23T11:14:45.775Z,5.00
2022-08-23T11:16:59.132Z,4.10
2022-08-23T11:19:04.738Z,4.70
2022-08-23T11:21:46.315Z,4.30
2022-08-23T11:24:15.963Z,3.80
2022-08-23T11:27:05.351Z,3.90
2022-08-23T11:29:34.472Z,3.80
2022-08-23T11:31:58.816Z,4.20
2022-08-23T11:34:06.951Z,4.30
2022-08-23T11:36:22.074Z,4.50
2022-08-23T11:39:01.893Z,4.30
2022-08-23T11:41:20.544Z,4.00
2022-08-23T11:43:29.567Z,5.70
2022-08-23T11:45:46.085Z,4.40
2022-08-23T11:48:03.938Z,4.20
2022-08-23T11:50:24.533Z,4.30
2022-08-23T11:52:54.923Z,4.20
2022-08-23T11:55:17.374Z,4.40
2022-08-23T11:57:35.221Z,4.80
2022-08-23T12:00:17.381Z,5.40
2022-08-23T12:02:47.047Z,4.50
2022-08-23T12:04:52.955Z,4.40
2022-08-23T12:07:01.628Z,4.20
2022-08-23T12:09:10.834Z,4.00
2022-08-23T12:11:17.878Z,4.70
2022-08-23T12:13:44.147Z,5.10
2022-08-23T12:16:16.285Z,5.00
2022-08-23T12:18:25.084Z,4.30
2022-08-23T12:20:33.606Z,4.50
2022-08-23T12:22:57.887Z,4.40
2022-08-23T12:25:05.913Z,4.50
2022-08-23T12:27:31.025Z,4.60
2022-08-23T12:29:52.871Z,4.40
2022-08-23T12:32:05.872Z,4.60
2022-08-23T12:34:25.109Z,4.40
2022-08-23T12:36:39.011Z,5.30
2022-08-23T12:38:54.840Z,4.70
2022-08-23T12:41:11.936Z,4.00
2022-08-23T12:43:23.174Z,4.30
2022-08-23T12:45:35.770Z,5.30
2022-08-23T12:47:43.066Z,5.00
2022-08-23T12:49:59.132Z,4.50
2022-08-23T12:52:07.037Z,4.30
2022-08-23T12:54:24.058Z,5.10
2022-08-23T12:56:32.393Z,4.10
2022-08-23T12:58:48.138Z,4.20
2022-08-23T13:00:58.658Z,4.40
2022-08-23T13:03:11.971Z,4.60
2022-08-23T13:05:26.927Z,4.40
2022-08-23T13:07:32.617Z,3.80
2022-08-23T13:09:40.547Z,4.50
2022-08-23T13:11:46.362Z,4.30
2022-08-23T13:13:51.568Z,3.90
2022-08-23T13:15:59.857Z,4.40
2022-08-23T13:18:04.743Z,4.80
2022-08-23T13:20:29.036Z,5.10
2022-08-23T13:22:36.762Z,4.40
2022-08-23T13:24:43.659Z,3.80
2022-08-23T13:26:48.710Z,4.20
2022-08-23T13:29:06.230Z,3.70
2022-08-23T13:31:11.242Z,4.30
2022-08-23T13:33:23.156Z,4.30
2022-08-23T13:35:35.150Z,3.90
2022-08-23T13:37:46.598Z,4.60
2022-08-23T13:39:57.470Z,4.50
2022-08-23T13:42:02.463Z,4.00
2022-08-23T13:44:09.220Z,4.30
2022-08-23T13:46:18.182Z,4.10
2022-08-23T13:48:30.530Z,4.30
2022-08-23T13:50:37.292Z,3.90
2022-08-23T13:53:10.088Z,4.80
2022-08-23T13:55:07.426Z,3.60
2022-08-23T13:57:16.363Z,4.20
2022-08-23T13:59:26.827Z,4.30
2022-08-23T14:01:36.627Z,4.20
2022-08-23T14:03:41.534Z,3.90
2022-08-23T14:05:46.357Z,4.50
2022-08-23T14:07:51.392Z,3.90
2022-08-23T14:09:56.133Z,4.40
2022-08-23T14:12:04.045Z,3.80
2022-08-23T14:14:09.809Z,3.80
2022-08-23T14:16:33.608Z,4.30
2022-08-23T14:19:15.119Z,4.30
2022-08-23T14:21:04.221Z,4.40
2022-08-23T14:23:11.929Z,4.50
2022-08-23T14:25:18.141Z,4.20
2022-08-23T14:27:22.997Z,4.20
2022-08-23T14:29:28.401Z,4.50
2022-08-23T14:31:33.467Z,4.40
2022-08-23T14:33:38.290Z,4.30
2022-08-23T14:35:43.123Z,4.20
2022-08-23T14:38:04.622Z,3.80
2022-08-23T14:40:12.514Z,4.30
2022-08-23T14:42:21.046Z,4.50
2022-08-23T14:44:30.249Z,4.90
2022-08-23T14:46:38.122Z,4.60
2022-08-23T14:48:43.338Z,5.90
2022-08-23T14:50:48.355Z,4.10
2022-08-23T14:52:53.211Z,4.70
2022-08-23T14:54:58.823Z,5.30
2022-08-23T14:57:03.823Z,4.90
2022-08-23T14:59:08.627Z,5.10
2022-08-23T15:01:14.565Z,5.00
2022-08-23T15:03:24.204Z,4.30
2022-08-23T15:05:31.951Z,4.90
2022-08-23T15:07:37.123Z,5.00
2022-08-23T15:09:41.993Z,4.10
2022-08-23T15:14:15.231Z,5.10
2022-08-23T15:16:22.273Z,4.90
2022-08-23T15:18:27.428Z,4.80
2022-08-23T15:20:35.565Z,4.50
2022-08-23T15:22:55.582Z,4.80
2022-08-23T15:25:00.877Z,4.50
2022-08-23T15:27:06.593Z,4.70
2022-08-23T15:29:11.423Z,3.90
2022-08-23T15:31:18.149Z,4.40
2022-08-23T15:33:27.086Z,4.40
2022-08-23T15:35:40.903Z,4.10
2022-08-23T15:37:46.707Z,4.10
2022-08-23T15:39:52.357Z,4.90
2022-08-23T15:41:57.186Z,4.70
2022-08-23T15:44:02.248Z,4.90
2022-08-23T15:46:10.336Z,4.70
2022-08-23T15:48:21.040Z,5.20
2022-08-23T15:50:29.052Z,4.70
2022-08-23T15:52:33.830Z,4.70
2022-08-23T15:54:38.739Z,4.40
2022-08-23T15:56:48.374Z,4.70
2022-08-23T15:58:54.370Z,4.80
2022-08-23T16:00:59.463Z,4.30
2022-08-23T16:03:18.986Z,4.50
2022-08-23T16:05:25.876Z,3.80
2022-08-23T16:07:32.355Z,4.10
2022-08-23T16:09:38.010Z,3.60
2022-08-23T16:11:42.800Z,4.00
2022-08-23T16:13:49.684Z,4.70
2022-08-23T16:16:01.727Z,4.20
2022-08-23T16:18:07.231Z,5.30
2022-08-23T16:20:14.906Z,5.80
2022-08-23T16:22:19.588Z,4.70
2022-08-23T16:24:28.019Z,4.60
2022-08-23T16:26:35.727Z,4.60
2022-08-23T16:28:40.855Z,4.90
2022-08-23T16:30:45.833Z,4.60
2022-08-23T16:32:50.700Z,4.50
2022-08-23T16:34:55.577Z,4.90
2022-08-23T16:37:02.831Z,6.10
2022-08-23T16:39:08.742Z,5.00
2022-08-23T16:41:13.726Z,4.20
2022-08-23T16:43:18.538Z,6.20
2022-08-23T16:45:26.320Z,5.60
2022-08-23T16:47:33.657Z,6.00
2022-08-23T16:49:38.577Z,5.60
2022-08-23T16:51:44.671Z,4.00
2022-08-23T16:53:57.985Z,5.20
2022-08-23T16:56:08.720Z,5.00
2022-08-23T16:58:13.593Z,5.00
2022-08-23T17:00:19.205Z,5.20
2022-08-23T17:02:28.861Z,5.70
2022-08-23T17:04:34.233Z,6.20
2022-08-23T17:06:39.377Z,4.90
2022-08-23T17:08:44.249Z,5.20
2022-08-23T17:10:49.180Z,5.20
2022-08-23T17:12:56.724Z,5.20
2022-08-23T17:15:01.539Z,4.70
2022-08-23T17:17:06.342Z,5.10
2022-08-23T17:19:11.621Z,4.90
2022-08-23T17:21:16.661Z,5.50
2022-08-23T17:23:21.530Z,5.40
2022-08-23T17:25:26.939Z,6.30
2022-08-23T17:27:31.898Z,6.00
2022-08-23T17:29:37.269Z,5.20
2022-08-23T17:31:42.540Z,6.20
2022-08-23T17:33:47.600Z,6.00
2022-08-23T17:35:52.399Z,5.80
2022-08-23T17:37:57.416Z,5.90
2022-08-23T17:40:10.205Z,5.00
2022-08-23T17:42:18.250Z,5.20
2022-08-23T17:44:23.601Z,5.10
2022-08-23T17:46:28.888Z,5.10
2022-08-23T17:48:33.653Z,5.80
2022-08-23T17:50:39.032Z,6.20
2022-08-23T17:52:44.601Z,6.40
2022-08-23T17:54:49.502Z,6.30
2022-08-23T17:56:54.379Z,5.90
2022-08-23T17:58:59.312Z,5.10
2022-08-23T18:01:04.552Z,4.90
2022-08-23T18:03:09.387Z,5.70
2022-08-23T18:05:14.258Z,6.30
2022-08-23T18:07:19.168Z,5.40
2022-08-23T18:09:25.885Z,7.30
2022-08-23T18:11:30.959Z,5.30
2022-08-23T18:13:35.770Z,5.10
2022-08-23T18:15:40.889Z,5.10
2022-08-23T18:17:47.393Z,5.10
2022-08-23T18:19:52.162Z,5.40
2022-08-23T18:22:01.819Z,5.40
2022-08-23T18:24:09.656Z,5.20
2022-08-23T18:26:15.094Z,5.00
2022-08-23T18:28:20.446Z,5.50
2022-08-23T18:30:27.641Z,5.10
2022-08-23T18:32:32.614Z,4.80
2022-08-23T18:34:39.742Z,5.70
2022-08-23T18:36:46.304Z,5.20
2022-08-23T18:38:52.158Z,5.60
2022-08-23T18:40:57.365Z,6.10
2022-08-23T18:43:02.621Z,5.70
2022-08-23T18:45:09.931Z,5.70
2022-08-23T18:47:15.103Z,5.90
2022-08-23T18:49:20.200Z,6.60
2022-08-23T18:51:25.641Z,6.70
2022-08-23T18:53:30.913Z,5.80
2022-08-23T18:55:35.832Z,5.00
2022-08-23T18:57:40.987Z,5.50
2022-08-23T18:59:46.173Z,5.00
2022-08-23T19:01:51.125Z,5.80
2022-08-23T19:03:58.277Z,5.10
2022-08-23T19:06:03.471Z,5.20
2022-08-23T19:08:09.976Z,6.20
2022-08-23T19:10:18.452Z,7.20
2022-08-23T19:12:25.894Z,5.30
2022-08-23T19:14:31.333Z,5.80
2022-08-23T19:16:36.496Z,5.30
2022-08-23T19:18:42.573Z,5.00
2022-08-23T19:20:47.715Z,5.10
2022-08-23T19:22:53.160Z,5.60
2022-08-23T19:25:01.642Z,4.30
2022-08-23T19:27:07.136Z,5.60
2022-08-23T19:29:12.174Z,6.50
2022-08-23T19:31:18.031Z,5.20
2022-08-23T19:33:23.498Z,5.10
2022-08-23T19:35:29.337Z,6.10
2022-08-23T19:37:34.986Z,5.80
2022-08-23T19:39:43.339Z,5.80
2022-08-23T19:41:48.374Z,5.30
2022-08-23T19:43:53.556Z,5.30
2022-08-23T19:46:00.091Z,5.70
2022-08-23T19:48:08.480Z,5.80
2022-08-23T19:50:14.738Z,6.30
2022-08-23T19:52:28.115Z,6.30
2022-08-23T19:54:33.367Z,6.20
2022-08-23T19:56:42.342Z,6.60
2022-08-23T19:58:47.561Z,5.20
2022-08-23T20:00:52.827Z,6.10
2022-08-23T20:03:01.782Z,5.70
2022-08-23T20:05:08.547Z,5.70
2022-08-23T20:07:13.868Z,5.50
2022-08-23T20:09:20.379Z,5.00
2022-08-23T20:11:28.136Z,5.20
2022-08-23T20:13:33.342Z,4.80
2022-08-23T20:15:39.957Z,5.20
2022-08-23T20:17:44.925Z,5.00
2022-08-23T20:19:50.379Z,5.20
2022-08-23T20:21:55.644Z,5.00
2022-08-23T20:24:00.825Z,5.40
2022-08-23T20:26:05.969Z,5.20
2022-08-23T20:28:10.998Z,5.70
2022-08-23T20:30:17.432Z,5.50
2022-08-23T20:32:22.597Z,6.20
2022-08-23T20:34:28.618Z,5.30
2022-08-23T20:36:38.169Z,5.80
2022-08-23T20:38:43.231Z,6.20
2022-08-23T20:40:50.382Z,5.40
2022-08-23T20:42:58.882Z,6.40
2022-08-23T20:45:08.196Z,5.40
2022-08-23T20:47:13.093Z,5.40
2022-08-23T20:49:18.162Z,5.70
2022-08-23T20:51:26.975Z,5.10
2022-08-23T20:53:32.864Z,5.20
2022-08-23T20:55:39.245Z,5.20
2022-08-23T20:57:43.983Z,6.20
2022-08-23T20:59:48.871Z,6.10
2022-08-23T21:01:54.228Z,6.30
2022-08-23T21:03:59.427Z,5.60
2022-08-23T21:06:06.169Z,5.90
2022-08-23T21:08:13.139Z,6.00
2022-08-23T21:10:18.120Z,5.50
2022-08-23T21:12:22.869Z,5.80
2022-08-23T21:14:27.642Z,5.30
2022-08-23T21:16:32.614Z,6.60
2022-08-23T21:18:37.532Z,6.50
2022-08-23T21:20:42.358Z,6.50
2022-08-23T21:22:47.175Z,6.80
2022-08-23T21:24:52.097Z,5.90
2022-08-23T21:26:56.866Z,6.20
2022-08-23T21:29:02.396Z,5.40
2022-08-23T21:31:10.450Z,6.50
2022-08-23T21:33:16.006Z,5.70
2022-08-23T21:35:21.074Z,6.60
2022-08-23T21:37:26.575Z,6.30
2022-08-23T21:39:31.581Z,6.40
2022-08-23T21:41:40.548Z,6.20
2022-08-23T21:43:45.339Z,5.70
2022-08-23T21:45:50.104Z,5.80
2022-08-23T21:47:54.964Z,6.20
2022-08-23T21:50:02.844Z,5.90
2022-08-23T21:52:08.015Z,6.50
2022-08-23T21:54:13.457Z,5.70
2022-08-23T21:56:18.601Z,5.70
2022-08-23T21:58:23.455Z,6.50
2022-08-23T22:00:28.319Z,5.80
2022-08-23T22:02:33.344Z,6.50
2022-08-23T22:04:38.279Z,5.80
2022-08-23T22:06:44.855Z,6.40
2022-08-23T22:08:49.642Z,5.50
2022-08-23T22:10:57.719Z,7.40
2022-08-23T22:13:03.521Z,5.80
2022-08-23T22:15:10.808Z,5.70
2022-08-23T22:17:15.820Z,7.50
2022-08-23T22:19:21.486Z,7.60
2022-08-23T22:21:29.464Z,6.90
2022-08-23T22:23:40.689Z,6.20
2022-08-23T22:25:45.494Z,6.40
2022-08-23T22:27:50.974Z,7.10
2022-08-23T22:29:57.767Z,7.00
2022-08-23T22:32:02.620Z,7.20
2022-08-23T22:34:09.473Z,7.20
2022-08-23T22:36:17.024Z,7.60
2022-08-23T22:38:22.036Z,7.20
2022-08-23T22:40:26.900Z,7.10
2022-08-23T22:42:31.820Z,7.00
2022-08-23T22:44:36.800Z,6.70
2022-08-23T22:46:41.710Z,7.10
2022-08-23T22:48:47.097Z,6.90
2022-08-23T22:51:02.559Z,7.70
2022-08-23T22:53:07.263Z,6.50
2022-08-23T22:55:12.211Z,6.40
2022-08-23T22:57:17.026Z,8.10
2022-08-23T22:59:25.798Z,6.90
2022-08-23T23:01:35.975Z,6.60
2022-08-23T23:03:41.447Z,7.00
2022-08-23T23:05:46.851Z,7.00
2022-08-23T23:07:51.890Z,7.90
2022-08-23T23:09:56.635Z,6.60
2022-08-23T23:12:01.463Z,6.30
2022-08-23T23:14:08.288Z,6.80
2022-08-23T23:16:15.684Z,6.70
2022-08-23T23:18:21.793Z,6.10
2022-08-23T23:20:26.548Z,5.90
2022-08-23T23:22:31.253Z,6.20
2022-08-23T23:24:38.474Z,6.20
2022-08-23T23:26:44.539Z,6.40
2022-08-23T23:28:52.649Z,6.40
2022-08-23T23:30:58.276Z,6.50
2022-08-23T23:33:03.610Z,6.10
2022-08-23T23:35:09.643Z,6.50
2022-08-23T23:37:14.491Z,6.10
2022-08-23T23:39:19.330Z,6.20
2022-08-23T23:41:24.376Z,6.00
2022-08-23T23:43:29.043Z,6.30
2022-08-23T23:45:33.918Z,6.00
2022-08-23T23:47:38.931Z,5.80
2022-08-23T23:49:43.654Z,7.00
2022-08-23T23:51:48.437Z,6.30
2022-08-23T23:53:54.669Z,5.80
2022-08-23T23:56:06.575Z,6.00
2022-08-23T23:58:11.409Z,6.00
